Blackville, Arkansas
Current Conditions -  °F | °C
As of 9:56 PM on Friday 24 Oct 2014 (Local Time) from KM19 Reporting Station
Clear Clear  
Wind Chill: 59°   Ceiling: Unl
Heat Index: 59°   Visibility: 9mi
Dew Point: 55°   Wind: 7mph
Humidity: 86%   Direction: 140°SE
Pressure: 30.1"   Gusts: NA
Location:  35.5678°N, 91.2073°W
Report Text: KM19 250256Z AUTO 14006KT 9SM CLR 15/13 A3010 RMK AO2 52005 T01500127 SLP190
Loading
Personal Weather Stations






























Interactive Weather Map New forecast layout! Learn more

10-Day Weather Forecast

Advertisements
Track Severe Weather on mobile